Blue Star Naxos — SZUI — position and weather

sailwx.info

Track history (hours):
 
Tides and Currents Weather Stations Pressure Air Temp Water Temp Dewpoint Dewpoint Depression Visibility Wind Speed Wind Dir Waves Ship Positions

Blue Star Naxos

Last reported at 2014-Nov-01 02:33 UTC. Time now 2014-Nov-01 03:26 UTC.
Position N 36°50' E 025°52'.

Length 124 m; draft 5 m.

Type: Passenger vessel. MMSI: 239923000.

Date/timePositionNaut miles runAvg speedWind from/ knotsBaromVisibWave heightAir tempDewpointWater temp
2014-Nov-01 02:33N 36°50' E 025°52'0 0.0
2014-Nov-01 01:32N 36°50' E 025°52'0 0.1
2014-Nov-01 00:33N 36°50' E 025°52'1515.0
2014-Oct-31 23:33N 36°53' E 025°33'9 9.4
2014-Oct-31 22:34N 36°56' E 025°22'10 9.9
2014-Oct-31 21:33N 37°06' E 025°22'2010.0
2014-Oct-31 19:33N 37°14' E 024°59'2120.9
2014-Oct-31 18:33N 37°27' E 024°39'2221.5
2014-Oct-31 17:33N 37°32' E 024°12'2421.8
2014-Oct-31 16:28N 37°40' E 023°44'1719.0
2014-Oct-31 15:34N 37°57' E 023°38'0 0.3
2014-Oct-31 14:34N 37°57' E 023°38'0 0.0
2014-Oct-31 13:34N 37°57' E 023°38'1010.3
2014-Oct-31 12:33N 37°47' E 023°42'6621.6
2014-Oct-31 09:30N 37°14' E 024°54'1514.8
2014-Oct-31 08:31N 37°05' E 025°09'1111.1
2014-Oct-31 07:33N 37°06' E 025°22'1010.3
2014-Oct-31 06:33N 37°13' E 025°32'1717.2
2014-Oct-31 05:34N 37°03' E 025°49'1211.7
2014-Oct-31 04:33N 36°57' E 026°02'2322.1
2014-Oct-31 03:30N 36°37' E 026°18'4 4.3
2014-Oct-31 02:33N 36°41' E 026°16'2221.7
2014-Oct-31 01:33N 37°00' E 026°03'7 7.3
2014-Oct-31 00:33N 36°55' E 025°57'2718.7
2014-Oct-30 23:07N 37°13' E 025°32'1018.5
2014-Oct-30 22:33N 37°06' E 025°22'1110.6
2014-Oct-30 21:31N 37°07' E 025°08'6 6.0
2014-Oct-30 20:32N 37°12' E 025°04'1514.9
2014-Oct-30 19:30N 37°26' E 024°57'1415.4
2014-Oct-30 18:33N 37°31' E 024°39'2221.7
2014-Oct-30 17:33N 37°31' E 024°12'2421.7
2014-Oct-30 16:28N 37°40' E 023°44'1819.1
2014-Oct-30 15:33N 37°57' E 023°38'0 0.3
2014-Oct-30 14:33N 37°57' E 023°38'0 0.0
2014-Oct-30 13:33N 37°57' E 023°38'10 9.8
2014-Oct-30 12:33N 37°47' E 023°42'6521.6
2014-Oct-30 09:33N 37°15' E 024°52'1615.7
2014-Oct-30 08:32N 37°05' E 025°09'1010.8
2014-Oct-30 07:34N 37°06' E 025°22'1211.7
2014-Oct-30 06:33N 37°13' E 025°35'1818.0
2014-Oct-30 05:33N 37°01' E 025°51'1212.0
2014-Oct-30 04:33N 36°55' E 026°05'2121.6
2014-Oct-30 03:33N 36°37' E 026°19'3 1.3
2014-Oct-30 01:24N 36°35' E 026°21'1921.6
2014-Oct-30 00:33N 36°50' E 026°09'9 9.4
2014-Oct-29 23:34N 36°54' E 025°58'1615.5
2014-Oct-29 22:33N 37°06' E 025°46'1818.3
2014-Oct-29 21:33N 37°08' E 025°23'9 9.1
2014-Oct-29 20:33N 37°09' E 025°12'1010.0
2014-Oct-29 19:33N 37°08' E 024°59'2221.9
2014-Oct-29 18:33N 37°14' E 024°33'4621.9
2014-Oct-29 16:27N 37°39' E 023°44'1820.2
2014-Oct-29 15:34N 37°56' E 023°38'0 0.5
2014-Oct-29 14:33N 37°57' E 023°38'0 0.0
2014-Oct-29 13:33N 37°57' E 023°38'9 8.7
2014-Oct-29 12:33N 37°48' E 023°41'4521.3
2014-Oct-29 10:26N 37°27' E 024°32'2022.3
2014-Oct-29 09:33N 37°15' E 024°51'1717.0
2014-Oct-29 08:33N 37°05' E 025°09'1110.7
2014-Oct-29 07:33N 37°06' E 025°22'6 5.8
2014-Oct-29 06:33N 37°01' E 025°19'1312.9
2014-Oct-29 05:33N 36°52' E 025°31'9 9.1
2014-Oct-29 04:34N 36°55' E 025°42'3 0.8
2014-Oct-29 00:33N 36°53' E 025°44'1111.1
2014-Oct-28 23:33N 36°52' E 025°31'1212.4
2014-Oct-28 22:33N 37°01' E 025°19'10 9.9
2014-Oct-28 21:33N 37°10' E 025°17'9 8.8
2014-Oct-28 20:33N 37°09' E 025°06'1918.9
2014-Oct-28 19:33N 37°26' E 024°57'1413.9
2014-Oct-28 18:33N 37°31' E 024°40'2221.8
2014-Oct-28 17:34N 37°31' E 024°13'2522.1
2014-Oct-28 16:27N 37°40' E 023°44'1719.7
2014-Oct-28 15:33N 37°57' E 023°38'0 0.3
2014-Oct-28 14:33N 37°57' E 023°38'0 0.0
2014-Oct-28 13:33N 37°57' E 023°38'9 8.7
2014-Oct-28 12:33N 37°48' E 023°41'4822.1
2014-Oct-28 10:24N 37°16' E 024°26'1922.5
2014-Oct-28 09:33N 37°11' E 024°49'1717.0
2014-Oct-28 08:33N 37°05' E 025°09'1110.6
2014-Oct-28 07:33N 37°06' E 025°22'1110.8
2014-Oct-28 06:33N 37°13' E 025°33'1818.0
2014-Oct-28 05:34N 37°02' E 025°50'1513.1
2014-Oct-28 04:26N 36°55' E 026°06'2022.2
2014-Oct-28 03:31N 36°37' E 026°19'2 1.0
2014-Oct-28 01:23N 36°35' E 026°21'1821.9
2014-Oct-28 00:33N 36°51' E 026°09'1211.9
2014-Oct-27 23:33N 36°56' E 025°55'1716.8
2014-Oct-27 22:32N 37°09' E 025°41'1515.3
2014-Oct-27 21:33N 37°06' E 025°22'1110.8
2014-Oct-27 20:31N 37°07' E 025°08'8 7.9
2014-Oct-27 19:33N 37°08' E 024°59'2221.9
2014-Oct-27 18:32N 37°15' E 024°32'4621.8
2014-Oct-27 16:24N 37°40' E 023°43'1719.9
2014-Oct-27 15:33N 37°57' E 023°38'0 0.4
2014-Oct-27 14:33N 37°57' E 023°38'0 0.0
2014-Oct-27 13:33N 37°57' E 023°38'9 8.7
2014-Oct-27 12:33N 37°48' E 023°41'5022.0
2014-Oct-27 10:18N 37°16' E 024°28'1722.4
2014-Oct-27 09:33N 37°11' E 024°48'1611.9
2014-Oct-27 08:14N 37°06' E 025°07'1217.4
2014-Oct-27 07:33N 37°07' E 025°22'7 6.6
2014-Oct-27 06:33N 37°00' E 025°19'1212.1
2014-Oct-27 05:33N 36°52' E 025°31'9 9.4
2014-Oct-27 04:33N 36°54' E 025°42'3 0.7
2014-Oct-27 00:33N 36°53' E 025°45'1211.5
2014-Oct-26 23:33N 36°52' E 025°31'1413.5
2014-Oct-26 22:33N 37°02' E 025°19'9 8.8
2014-Oct-26 21:33N 37°10' E 025°16'8 8.2
2014-Oct-26 20:33N 37°10' E 025°06'1818.0
2014-Oct-26 19:32N 37°26' E 024°57'1414.5
2014-Oct-26 18:33N 37°32' E 024°40'2121.2
2014-Oct-26 17:33N 37°31' E 024°14'2322.2
2014-Oct-26 16:32N 37°39' E 023°46'1919.6
2014-Oct-26 15:33N 37°56' E 023°38'1 0.5
2014-Oct-26 14:33N 37°57' E 023°38'0 0.0
2014-Oct-26 13:33N 37°57' E 023°38'9 9.4
2014-Oct-26 12:33N 37°48' E 023°42'5121.7
2014-Oct-26 10:11N 37°15' E 024°32'1422.4
2014-Oct-26 09:33N 37°11' E 024°48'1713.1
2014-Oct-26 08:16N 37°05' E 025°08'1114.9
2014-Oct-26 07:33N 37°07' E 025°22'1312.8
2014-Oct-26 06:33N 36°54' E 025°21'2121.1
2014-Oct-26 05:33N 36°33' E 025°23'10 9.9
2014-Oct-26 04:33N 36°23' E 025°26'0 0.0
2014-Oct-26 03:33N 36°23' E 025°26'0 0.0
2014-Oct-26 02:33N 36°23' E 025°26'0 0.0
2014-Oct-26 01:33N 36°23' E 025°26'0 0.0
2014-Oct-26 00:33N 36°23' E 025°26'0 0.0
2014-Oct-25 23:33N 36°23' E 025°26'0 0.2
2014-Oct-25 22:33N 36°23' E 025°26'1918.7
2014-Oct-25 21:33N 36°42' E 025°25'2222.2
2014-Oct-25 20:34N 37°03' E 025°18'7 7.2
2014-Oct-25 19:33N 37°10' E 025°13'1111.0
2014-Oct-25 18:33N 37°08' E 024°60'2221.9
2014-Oct-25 17:33N 37°14' E 024°33'4422.1
2014-Oct-25 15:33N 37°38' E 023°46'2020.2
2014-Oct-25 14:33N 37°57' E 023°38'0 0.2
2014-Oct-25 13:33N 37°57' E 023°38'0 0.0
2014-Oct-25 12:33N 37°57' E 023°38'1211.7
2014-Oct-25 11:33N 37°46' E 023°43'5121.5
2014-Oct-25 09:12N 37°14' E 024°33'1421.9
2014-Oct-25 08:33N 37°10' E 024°50'1614.1
2014-Oct-25 07:25N 37°05' E 025°09'1011.7
2014-Oct-25 06:33N 37°07' E 025°22'1212.3
2014-Oct-25 05:33N 36°55' E 025°19'10 9.9
2014-Oct-25 04:33N 36°52' E 025°31'9 9.3
2014-Oct-25 03:33N 36°54' E 025°42'9 3.8
2014-Oct-25 01:06N 36°50' E 025°52'0 0.1
2014-Oct-25 00:28N 36°50' E 025°52'1414.9
2014-Oct-24 23:33N 36°55' E 025°36'7 6.8
2014-Oct-24 22:33N 36°53' E 025°29'1514.7
2014-Oct-24 21:33N 37°06' E 025°22'1110.6
2014-Oct-24 20:31N 37°07' E 025°09'5 4.8
2014-Oct-24 19:33N 37°08' E 025°03'2221.8
2014-Oct-24 18:33N 37°21' E 024°40'1918.6
2014-Oct-24 17:33N 37°27' E 024°18'2821.1
2014-Oct-24 16:13N 37°39' E 023°46'1420.4
2014-Oct-24 15:34N 37°50' E 023°37'7 6.6
2014-Oct-24 14:33N 37°57' E 023°38'0 0.0
2014-Oct-24 13:33N 37°57' E 023°38'0 0.0
2014-Oct-24 12:33N 37°57' E 023°38'9 9.2
2014-Oct-24 11:34N 37°48' E 023°42'5221.8
2014-Oct-24 09:10N 37°15' E 024°32'1422.5
2014-Oct-24 08:33N 37°10' E 024°48'1716.2
2014-Oct-24 07:30N 37°05' E 025°09'1111.2
2014-Oct-24 06:33N 37°06' E 025°22'1111.0
2014-Oct-24 05:33N 37°13' E 025°34'1818.0
2014-Oct-24 04:33N 37°01' E 025°51'1110.8
2014-Oct-24 03:34N 36°56' E 026°03'2421.1
2014-Oct-24 02:24N 36°36' E 026°20'1 0.9
2014-Oct-24 01:33N 36°35' E 026°20'2121.2
2014-Oct-24 00:33N 36°54' E 026°07'7 7.1
2014-Oct-23 23:33N 36°54' E 025°58'1616.4
2014-Oct-23 22:33N 37°06' E 025°45'1818.0
2014-Oct-23 21:33N 37°08' E 025°23'9 8.8
2014-Oct-23 20:33N 37°09' E 025°12'6 5.8
2014-Oct-23 19:31N 37°11' E 025°05'1616.3
2014-Oct-23 18:31N 37°26' E 024°57'1414.3
2014-Oct-23 17:33N 37°31' E 024°40'2221.7
2014-Oct-23 16:33N 37°31' E 024°13'2422.0
2014-Oct-23 15:27N 37°40' E 023°44'1719.5
2014-Oct-23 14:34N 37°57' E 023°38'0 0.4
2014-Oct-23 13:34N 37°57' E 023°38'0 0.0
2014-Oct-23 12:33N 37°57' E 023°38'1414.3
2014-Oct-23 11:33N 37°43' E 023°44'2821.1
2014-Oct-23 10:13N 37°23' E 024°09'1820.2
2014-Oct-23 09:21N 37°15' E 024°29'1721.7
2014-Oct-23 08:33N 37°10' E 024°50'1611.3
2014-Oct-23 07:08N 37°08' E 025°10'1017.6
2014-Oct-23 06:33N 37°06' E 025°22'1111.5
2014-Oct-23 05:33N 37°13' E 025°34'1817.8
2014-Oct-23 04:34N 37°01' E 025°51'1211.4
2014-Oct-23 03:30N 36°56' E 026°04'2021.7
2014-Oct-23 02:34N 36°39' E 026°18'4 3.6
2014-Oct-23 01:32N 36°36' E 026°20'2221.7
2014-Oct-23 00:30N 36°55' E 026°07'9 9.5
2014-Oct-22 23:34N 36°59' E 025°57'5 5.4
2014-Oct-22 22:33N 37°01' E 025°51'1817.8
2014-Oct-22 21:32N 37°13' E 025°33'1111.2
2014-Oct-22 20:33N 37°06' E 025°22'11 9.7
2014-Oct-22 19:27N 37°05' E 025°09'1011.4
2014-Oct-22 18:33N 37°08' E 024°57'2221.9
2014-Oct-22 17:33N 37°15' E 024°30'4421.4
2014-Oct-22 15:31N 37°39' E 023°45'1919.3
2014-Oct-22 14:33N 37°57' E 023°38'0 0.2
2014-Oct-22 13:33N 37°57' E 023°38'0 0.0
2014-Oct-22 12:33N 37°57' E 023°38'1110.7
2014-Oct-22 11:33N 37°46' E 023°42'8019.9
2014-Oct-22 07:31N 37°05' E 025°09'1110.4
2014-Oct-22 06:29N 37°06' E 025°22'1112.1
2014-Oct-22 05:33N 36°56' E 025°17'1211.8
2014-Oct-22 04:33N 36°52' E 025°31'10 9.9
2014-Oct-22 03:33N 36°54' E 025°43'  
Track history (hours):
 
Tides and Currents Weather Stations Pressure Air Temp Water Temp Dewpoint Dewpoint Depression Visibility Wind Speed Wind Dir Waves Ship Positions

Blue Star Naxos

Last reported at 2014-Nov-01 02:33 UTC. Time now 2014-Nov-01 03:26 UTC.
Position N 36°50' E 025°52'.

Length 124 m; draft 5 m.

Type: Passenger vessel. MMSI: 239923000.

Date/timePositionNaut miles runAvg speedWind from/ knotsBaromVisibWave heightAir tempDewpointWater temp
2014-Nov-01 02:33N 36°50' E 025°52'0 0.0
2014-Nov-01 01:32N 36°50' E 025°52'0 0.1
2014-Nov-01 00:33N 36°50' E 025°52'1515.0
2014-Oct-31 23:33N 36°53' E 025°33'9 9.4
2014-Oct-31 22:34N 36°56' E 025°22'10 9.9
2014-Oct-31 21:33N 37°06' E 025°22'2010.0
2014-Oct-31 19:33N 37°14' E 024°59'2120.9
2014-Oct-31 18:33N 37°27' E 024°39'2221.5
2014-Oct-31 17:33N 37°32' E 024°12'2421.8
2014-Oct-31 16:28N 37°40' E 023°44'1719.0
2014-Oct-31 15:34N 37°57' E 023°38'0 0.3
2014-Oct-31 14:34N 37°57' E 023°38'0 0.0
2014-Oct-31 13:34N 37°57' E 023°38'1010.3
2014-Oct-31 12:33N 37°47' E 023°42'6621.6
2014-Oct-31 09:30N 37°14' E 024°54'1514.8
2014-Oct-31 08:31N 37°05' E 025°09'1111.1
2014-Oct-31 07:33N 37°06' E 025°22'1010.3
2014-Oct-31 06:33N 37°13' E 025°32'1717.2
2014-Oct-31 05:34N 37°03' E 025°49'1211.7
2014-Oct-31 04:33N 36°57' E 026°02'2322.1
2014-Oct-31 03:30N 36°37' E 026°18'4 4.3
2014-Oct-31 02:33N 36°41' E 026°16'2221.7
2014-Oct-31 01:33N 37°00' E 026°03'7 7.3
2014-Oct-31 00:33N 36°55' E 025°57'2718.7
2014-Oct-30 23:07N 37°13' E 025°32'1018.5
2014-Oct-30 22:33N 37°06' E 025°22'1110.6
2014-Oct-30 21:31N 37°07' E 025°08'6 6.0
2014-Oct-30 20:32N 37°12' E 025°04'1514.9
2014-Oct-30 19:30N 37°26' E 024°57'1415.4
2014-Oct-30 18:33N 37°31' E 024°39'2221.7
2014-Oct-30 17:33N 37°31' E 024°12'2421.7
2014-Oct-30 16:28N 37°40' E 023°44'1819.1
2014-Oct-30 15:33N 37°57' E 023°38'0 0.3
2014-Oct-30 14:33N 37°57' E 023°38'0 0.0
2014-Oct-30 13:33N 37°57' E 023°38'10 9.8
2014-Oct-30 12:33N 37°47' E 023°42'6521.6
2014-Oct-30 09:33N 37°15' E 024°52'1615.7
2014-Oct-30 08:32N 37°05' E 025°09'1010.8
2014-Oct-30 07:34N 37°06' E 025°22'1211.7
2014-Oct-30 06:33N 37°13' E 025°35'1818.0
2014-Oct-30 05:33N 37°01' E 025°51'1212.0
2014-Oct-30 04:33N 36°55' E 026°05'2121.6
2014-Oct-30 03:33N 36°37' E 026°19'3 1.3
2014-Oct-30 01:24N 36°35' E 026°21'1921.6
2014-Oct-30 00:33N 36°50' E 026°09'9 9.4
2014-Oct-29 23:34N 36°54' E 025°58'1615.5
2014-Oct-29 22:33N 37°06' E 025°46'1818.3
2014-Oct-29 21:33N 37°08' E 025°23'9 9.1
2014-Oct-29 20:33N 37°09' E 025°12'1010.0
2014-Oct-29 19:33N 37°08' E 024°59'2221.9
2014-Oct-29 18:33N 37°14' E 024°33'4621.9
2014-Oct-29 16:27N 37°39' E 023°44'1820.2
2014-Oct-29 15:34N 37°56' E 023°38'0 0.5
2014-Oct-29 14:33N 37°57' E 023°38'0 0.0
2014-Oct-29 13:33N 37°57' E 023°38'9 8.7
2014-Oct-29 12:33N 37°48' E 023°41'4521.3
2014-Oct-29 10:26N 37°27' E 024°32'2022.3
2014-Oct-29 09:33N 37°15' E 024°51'1717.0
2014-Oct-29 08:33N 37°05' E 025°09'1110.7
2014-Oct-29 07:33N 37°06' E 025°22'6 5.8
2014-Oct-29 06:33N 37°01' E 025°19'1312.9
2014-Oct-29 05:33N 36°52' E 025°31'9 9.1
2014-Oct-29 04:34N 36°55' E 025°42'3 0.8
2014-Oct-29 00:33N 36°53' E 025°44'1111.1
2014-Oct-28 23:33N 36°52' E 025°31'1212.4
2014-Oct-28 22:33N 37°01' E 025°19'10 9.9
2014-Oct-28 21:33N 37°10' E 025°17'9 8.8
2014-Oct-28 20:33N 37°09' E 025°06'1918.9
2014-Oct-28 19:33N 37°26' E 024°57'1413.9
2014-Oct-28 18:33N 37°31' E 024°40'2221.8
2014-Oct-28 17:34N 37°31' E 024°13'2522.1
2014-Oct-28 16:27N 37°40' E 023°44'1719.7
2014-Oct-28 15:33N 37°57' E 023°38'0 0.3
2014-Oct-28 14:33N 37°57' E 023°38'0 0.0
2014-Oct-28 13:33N 37°57' E 023°38'9 8.7
2014-Oct-28 12:33N 37°48' E 023°41'4822.1
2014-Oct-28 10:24N 37°16' E 024°26'1922.5
2014-Oct-28 09:33N 37°11' E 024°49'1717.0
2014-Oct-28 08:33N 37°05' E 025°09'1110.6
2014-Oct-28 07:33N 37°06' E 025°22'1110.8
2014-Oct-28 06:33N 37°13' E 025°33'1818.0
2014-Oct-28 05:34N 37°02' E 025°50'1513.1
2014-Oct-28 04:26N 36°55' E 026°06'2022.2
2014-Oct-28 03:31N 36°37' E 026°19'2 1.0
2014-Oct-28 01:23N 36°35' E 026°21'1821.9
2014-Oct-28 00:33N 36°51' E 026°09'1211.9
2014-Oct-27 23:33N 36°56' E 025°55'1716.8
2014-Oct-27 22:32N 37°09' E 025°41'1515.3
2014-Oct-27 21:33N 37°06' E 025°22'1110.8
2014-Oct-27 20:31N 37°07' E 025°08'8 7.9
2014-Oct-27 19:33N 37°08' E 024°59'2221.9
2014-Oct-27 18:32N 37°15' E 024°32'4621.8
2014-Oct-27 16:24N 37°40' E 023°43'1719.9
2014-Oct-27 15:33N 37°57' E 023°38'0 0.4
2014-Oct-27 14:33N 37°57' E 023°38'0 0.0
2014-Oct-27 13:33N 37°57' E 023°38'9 8.7
2014-Oct-27 12:33N 37°48' E 023°41'5022.0
2014-Oct-27 10:18N 37°16' E 024°28'1722.4
2014-Oct-27 09:33N 37°11' E 024°48'1611.9
2014-Oct-27 08:14N 37°06' E 025°07'1217.4
2014-Oct-27 07:33N 37°07' E 025°22'7 6.6
2014-Oct-27 06:33N 37°00' E 025°19'1212.1
2014-Oct-27 05:33N 36°52' E 025°31'9 9.4
2014-Oct-27 04:33N 36°54' E 025°42'3 0.7
2014-Oct-27 00:33N 36°53' E 025°45'1211.5
2014-Oct-26 23:33N 36°52' E 025°31'1413.5
2014-Oct-26 22:33N 37°02' E 025°19'9 8.8
2014-Oct-26 21:33N 37°10' E 025°16'8 8.2
2014-Oct-26 20:33N 37°10' E 025°06'1818.0
2014-Oct-26 19:32N 37°26' E 024°57'1414.5
2014-Oct-26 18:33N 37°32' E 024°40'2121.2
2014-Oct-26 17:33N 37°31' E 024°14'2322.2
2014-Oct-26 16:32N 37°39' E 023°46'1919.6
2014-Oct-26 15:33N 37°56' E 023°38'1 0.5
2014-Oct-26 14:33N 37°57' E 023°38'0 0.0
2014-Oct-26 13:33N 37°57' E 023°38'9 9.4
2014-Oct-26 12:33N 37°48' E 023°42'5121.7
2014-Oct-26 10:11N 37°15' E 024°32'1422.4
2014-Oct-26 09:33N 37°11' E 024°48'1713.1
2014-Oct-26 08:16N 37°05' E 025°08'1114.9
2014-Oct-26 07:33N 37°07' E 025°22'1312.8
2014-Oct-26 06:33N 36°54' E 025°21'2121.1
2014-Oct-26 05:33N 36°33' E 025°23'10 9.9
2014-Oct-26 04:33N 36°23' E 025°26'0 0.0
2014-Oct-26 03:33N 36°23' E 025°26'0 0.0
2014-Oct-26 02:33N 36°23' E 025°26'0 0.0
2014-Oct-26 01:33N 36°23' E 025°26'0 0.0
2014-Oct-26 00:33N 36°23' E 025°26'0 0.0
2014-Oct-25 23:33N 36°23' E 025°26'0 0.2
2014-Oct-25 22:33N 36°23' E 025°26'1918.7
2014-Oct-25 21:33N 36°42' E 025°25'2222.2
2014-Oct-25 20:34N 37°03' E 025°18'7 7.2
2014-Oct-25 19:33N 37°10' E 025°13'1111.0
2014-Oct-25 18:33N 37°08' E 024°60'2221.9
2014-Oct-25 17:33N 37°14' E 024°33'4422.1
2014-Oct-25 15:33N 37°38' E 023°46'2020.2
2014-Oct-25 14:33N 37°57' E 023°38'0 0.2
2014-Oct-25 13:33N 37°57' E 023°38'0 0.0
2014-Oct-25 12:33N 37°57' E 023°38'1211.7
2014-Oct-25 11:33N 37°46' E 023°43'5121.5
2014-Oct-25 09:12N 37°14' E 024°33'1421.9
2014-Oct-25 08:33N 37°10' E 024°50'1614.1
2014-Oct-25 07:25N 37°05' E 025°09'1011.7
2014-Oct-25 06:33N 37°07' E 025°22'1212.3
2014-Oct-25 05:33N 36°55' E 025°19'10 9.9
2014-Oct-25 04:33N 36°52' E 025°31'9 9.3
2014-Oct-25 03:33N 36°54' E 025°42'9 3.8
2014-Oct-25 01:06N 36°50' E 025°52'0 0.1
2014-Oct-25 00:28N 36°50' E 025°52'1414.9
2014-Oct-24 23:33N 36°55' E 025°36'7 6.8
2014-Oct-24 22:33N 36°53' E 025°29'1514.7
2014-Oct-24 21:33N 37°06' E 025°22'1110.6
2014-Oct-24 20:31N 37°07' E 025°09'5 4.8
2014-Oct-24 19:33N 37°08' E 025°03'2221.8
2014-Oct-24 18:33N 37°21' E 024°40'1918.6
2014-Oct-24 17:33N 37°27' E 024°18'2821.1
2014-Oct-24 16:13N 37°39' E 023°46'1420.4
2014-Oct-24 15:34N 37°50' E 023°37'7 6.6
2014-Oct-24 14:33N 37°57' E 023°38'0 0.0
2014-Oct-24 13:33N 37°57' E 023°38'0 0.0
2014-Oct-24 12:33N 37°57' E 023°38'9 9.2
2014-Oct-24 11:34N 37°48' E 023°42'5221.8
2014-Oct-24 09:10N 37°15' E 024°32'1422.5
2014-Oct-24 08:33N 37°10' E 024°48'1716.2
2014-Oct-24 07:30N 37°05' E 025°09'1111.2
2014-Oct-24 06:33N 37°06' E 025°22'1111.0
2014-Oct-24 05:33N 37°13' E 025°34'1818.0
2014-Oct-24 04:33N 37°01' E 025°51'1110.8
2014-Oct-24 03:34N 36°56' E 026°03'2421.1
2014-Oct-24 02:24N 36°36' E 026°20'1 0.9
2014-Oct-24 01:33N 36°35' E 026°20'2121.2
2014-Oct-24 00:33N 36°54' E 026°07'7 7.1
2014-Oct-23 23:33N 36°54' E 025°58'1616.4
2014-Oct-23 22:33N 37°06' E 025°45'1818.0
2014-Oct-23 21:33N 37°08' E 025°23'9 8.8
2014-Oct-23 20:33N 37°09' E 025°12'6 5.8
2014-Oct-23 19:31N 37°11' E 025°05'1616.3
2014-Oct-23 18:31N 37°26' E 024°57'1414.3
2014-Oct-23 17:33N 37°31' E 024°40'2221.7
2014-Oct-23 16:33N 37°31' E 024°13'2422.0
2014-Oct-23 15:27N 37°40' E 023°44'1719.5
2014-Oct-23 14:34N 37°57' E 023°38'0 0.4
2014-Oct-23 13:34N 37°57' E 023°38'0 0.0
2014-Oct-23 12:33N 37°57' E 023°38'1414.3
2014-Oct-23 11:33N 37°43' E 023°44'2821.1
2014-Oct-23 10:13N 37°23' E 024°09'1820.2
2014-Oct-23 09:21N 37°15' E 024°29'1721.7
2014-Oct-23 08:33N 37°10' E 024°50'1611.3
2014-Oct-23 07:08N 37°08' E 025°10'1017.6
2014-Oct-23 06:33N 37°06' E 025°22'1111.5
2014-Oct-23 05:33N 37°13' E 025°34'1817.8
2014-Oct-23 04:34N 37°01' E 025°51'1211.4
2014-Oct-23 03:30N 36°56' E 026°04'2021.7
2014-Oct-23 02:34N 36°39' E 026°18'4 3.6
2014-Oct-23 01:32N 36°36' E 026°20'2221.7
2014-Oct-23 00:30N 36°55' E 026°07'9 9.5
2014-Oct-22 23:34N 36°59' E 025°57'5 5.4
2014-Oct-22 22:33N 37°01' E 025°51'1817.8
2014-Oct-22 21:32N 37°13' E 025°33'1111.2
2014-Oct-22 20:33N 37°06' E 025°22'11 9.7
2014-Oct-22 19:27N 37°05' E 025°09'1011.4
2014-Oct-22 18:33N 37°08' E 024°57'2221.9
2014-Oct-22 17:33N 37°15' E 024°30'4421.4
2014-Oct-22 15:31N 37°39' E 023°45'1919.3
2014-Oct-22 14:33N 37°57' E 023°38'0 0.2
2014-Oct-22 13:33N 37°57' E 023°38'0 0.0
2014-Oct-22 12:33N 37°57' E 023°38'1110.7
2014-Oct-22 11:33N 37°46' E 023°42'8019.9
2014-Oct-22 07:31N 37°05' E 025°09'1110.4
2014-Oct-22 06:29N 37°06' E 025°22'1112.1
2014-Oct-22 05:33N 36°56' E 025°17'1211.8
2014-Oct-22 04:33N 36°52' E 025°31'10 9.9
2014-Oct-22 03:33N 36°54' E 025°43'  

Dump ship's entire track history